Sacramento, California
Traffic Map
Current Weather Conditions
Sacramento, California
Clear
Clear

Feels Like: 9°
Wind Chill: Ceiling: Unl
Heat Index: Visibility: 10mi
Dew Point: Wind: 0mph
Humidity: 93% Direction: ° ()
Pressure: 30.08in Gusts: 0mph
Raw Report DataKSAC 211353Z AUTO 00000KT 10SM CLR 09/08 A3008 RMK AO2 SLP185 T00940083 TSNO
Traffic Incident Summary
Active as of:
Severity:
Category:
InformationThere was an issue retrieving the traffic information for this location. Please try a different location or try again shortly.
Advertisements
Track Severe Weather on mobile